Time;durP1;ratioP1;P1;durP2;ratioP2;P2;SDS_P1;SDS_P2;PMS_P1;PMS_P2;Temp;Humidity;BMP_temperature;BMP_pressure;BME280_temperature;BME280_humidity;BME280_pressure;Samples;Min_cycle;Max_cycle;Signal;HPM_P1;HPM_P2
2023/01/26 00:01:39;;;;;;;65.10;30.15;;;-1.50;99.90;;;;;;5024404;28;20030;-62
2023/01/26 00:04:04;;;;;;;65.50;30.30;;;-1.50;99.90;;;;;;5022617;28;20029;-62
2023/01/26 00:06:30;;;;;;;66.40;30.90;;;-1.40;99.90;;;;;;5023699;28;20033;-62
2023/01/26 00:08:58;;;;;;;62.05;30.67;;;-1.40;99.90;;;;;;5024114;28;20030;-62
2023/01/26 00:11:26;;;;;;;57.03;27.50;;;-1.50;99.90;;;;;;5024523;28;20112;-62
2023/01/26 00:13:52;;;;;;;59.53;29.40;;;-1.40;99.90;;;;;;5024422;28;20034;-62
2023/01/26 00:16:18;;;;;;;61.58;29.15;;;-1.50;99.90;;;;;;5024826;28;20095;-62
2023/01/26 00:18:44;;;;;;;68.75;31.20;;;-1.50;99.90;;;;;;5024788;28;20029;-62
2023/01/26 00:21:19;;;;;;;63.58;31.85;;;-1.40;99.90;;;;;;5024726;28;20087;-62
2023/01/26 00:23:45;;;;;;;61.30;29.75;;;-1.40;99.90;;;;;;5023567;28;20080;-62
2023/01/26 00:26:14;;;;;;;61.58;28.60;;;-1.40;99.90;;;;;;5026812;28;20092;-62
2023/01/26 00:28:39;;;;;;;58.47;29.95;;;-1.40;99.90;;;;;;5023973;28;20047;-62
2023/01/26 00:31:07;;;;;;;57.47;28.75;;;-1.50;99.90;;;;;;5026508;28;20033;-63
2023/01/26 00:33:33;;;;;;;61.20;29.95;;;-1.40;99.90;;;;;;5025239;28;20514;-63
2023/01/26 00:35:59;;;;;;;68.70;32.35;;;-1.40;99.90;;;;;;5023639;28;20045;-63
2023/01/26 00:38:24;;;;;;;61.78;31.58;;;-1.40;99.90;;;;;;5024194;28;20029;-63
2023/01/26 00:40:50;;;;;;;65.32;30.27;;;-1.40;99.90;;;;;;5025018;28;20025;-62
2023/01/26 00:43:16;;;;;;;61.63;30.33;;;-1.40;99.90;;;;;;5026061;28;20436;-62
2023/01/26 00:45:41;;;;;;;60.35;28.67;;;-1.40;99.90;;;;;;5025719;28;20044;-62
2023/01/26 00:48:07;;;;;;;68.43;31.05;;;-1.40;99.90;;;;;;5025147;28;20117;-62
2023/01/26 00:50:32;;;;;;;57.72;28.50;;;-1.40;99.90;;;;;;5023824;28;20151;-62
2023/01/26 00:52:58;;;;;;;60.33;29.05;;;-1.40;99.90;;;;;;5024724;28;20029;-63
2023/01/26 00:55:31;;;;;;;55.00;27.90;;;-1.40;99.90;;;;;;5024461;28;20030;-62
2023/01/26 00:57:57;;;;;;;56.25;26.52;;;-1.40;99.90;;;;;;5024286;28;20037;-62
2023/01/26 01:00:23;;;;;;;55.80;26.60;;;-1.40;99.90;;;;;;5025084;28;20022;-63
2023/01/26 01:02:48;;;;;;;55.20;27.05;;;-1.40;99.90;;;;;;5026238;28;20030;-63
2023/01/26 01:05:14;;;;;;;56.70;27.45;;;-1.40;99.90;;;;;;5024773;28;20063;-62
2023/01/26 01:07:40;;;;;;;50.83;24.63;;;-1.40;99.90;;;;;;5026659;28;20031;-63
2023/01/26 01:10:07;;;;;;;55.38;26.80;;;-1.40;99.90;;;;;;5026023;28;20021;-63
2023/01/26 01:12:32;;;;;;;54.60;26.48;;;-1.40;99.90;;;;;;5025233;28;20038;-62
2023/01/26 01:14:58;;;;;;;61.30;28.17;;;-1.50;99.90;;;;;;5025872;28;20070;-63
2023/01/26 01:17:23;;;;;;;53.20;25.80;;;-1.40;99.90;;;;;;5024530;28;20061;-62
2023/01/26 01:19:49;;;;;;;47.58;24.50;;;-1.40;99.90;;;;;;5027172;28;20033;-62
2023/01/26 01:22:14;;;;;;;52.13;26.00;;;-1.50;99.90;;;;;;5024570;28;20054;-62
2023/01/26 01:24:40;;;;;;;48.67;24.63;;;-1.50;99.90;;;;;;5027786;28;20033;-62
2023/01/26 01:27:06;;;;;;;53.50;25.45;;;-1.50;99.90;;;;;;5028651;28;20033;-62
2023/01/26 01:29:31;;;;;;;49.88;24.67;;;-1.50;99.90;;;;;;5028765;28;20029;-62
2023/01/26 01:31:57;;;;;;;54.80;24.67;;;-1.40;99.90;;;;;;5028303;28;20121;-62
2023/01/26 01:34:23;;;;;;;56.63;25.60;;;-1.40;99.90;;;;;;5029943;28;20091;-62
2023/01/26 01:36:48;;;;;;;49.60;24.63;;;-1.40;99.90;;;;;;5027063;28;20029;-62
2023/01/26 01:39:14;;;;;;;63.95;27.83;;;-1.40;99.90;;;;;;5024651;28;20912;-62
2023/01/26 01:41:39;;;;;;;52.03;25.20;;;-1.40;99.90;;;;;;5028087;28;20037;-62
2023/01/26 01:44:20;;;;;;;54.53;26.73;;;-1.50;99.90;;;;;;5028325;28;20044;-62
2023/01/26 01:46:59;;;;;;;54.08;25.88;;;-1.50;99.90;;;;;;5026768;28;20068;-62
2023/01/26 01:49:47;;;;;;;49.42;25.35;;;-1.50;99.90;;;;;;5028000;28;20033;-62
2023/01/26 01:52:25;;;;;;;49.45;25.90;;;-1.40;99.90;;;;;;5027521;28;20037;-62
2023/01/26 01:55:06;;;;;;;48.92;24.13;;;-1.40;99.90;;;;;;5026609;28;20025;-62
2023/01/26 01:57:43;;;;;;;51.83;24.83;;;-1.40;99.90;;;;;;5027934;28;20048;-62
2023/01/26 02:00:12;;;;;;;47.45;25.70;;;-1.40;99.90;;;;;;5027951;28;20072;-62
2023/01/26 02:02:39;;;;;;;52.47;26.13;;;-1.40;99.90;;;;;;5025193;28;20116;-62
2023/01/26 02:05:59;;;;;;;46.40;23.27;;;-1.40;99.90;;;;;;5025864;28;20036;-62
2023/01/26 02:08:56;;;;;;;48.35;23.48;;;-1.50;99.90;;;;;;4958519;28;20498;-62
2023/01/26 02:11:35;;;;;;;45.60;22.60;;;-1.40;99.90;;;;;;5022380;28;20069;-63
2023/01/26 02:14:03;;;;;;;49.60;25.17;;;-1.40;99.90;;;;;;5026594;28;20039;-62
2023/01/26 02:16:29;;;;;;;46.63;23.17;;;-1.40;99.90;;;;;;5027232;28;20021;-62
2023/01/26 02:18:55;;;;;;;51.58;24.67;;;-1.40;99.90;;;;;;5026602;28;20111;-62
2023/01/26 02:21:22;;;;;;;50.17;23.55;;;-1.50;99.90;;;;;;5026596;28;20022;-62
2023/01/26 02:24:00;;;;;;;41.40;20.50;;;-1.40;99.90;;;;;;5026470;28;20033;-62
2023/01/26 02:26:31;;;;;;;49.15;23.50;;;-1.40;99.90;;;;;;5026080;28;20048;-62
2023/01/26 02:28:58;;;;;;;40.38;21.95;;;-1.40;99.90;;;;;;5027286;28;20018;-63
2023/01/26 02:31:25;;;;;;;46.78;24.60;;;-1.40;99.90;;;;;;5024112;28;20083;-62
2023/01/26 02:33:51;;;;;;;49.95;23.52;;;-1.40;99.90;;;;;;5025937;28;20025;-62
2023/01/26 02:36:22;;;;;;;45.65;23.42;;;-1.40;99.90;;;;;;5027534;28;20553;-62
2023/01/26 02:39:10;;;;;;;49.30;22.48;;;-1.40;99.90;;;;;;5025407;28;20071;-62
2023/01/26 02:44:21;;;;;;;43.78;22.45;;;-1.40;99.90;;;;;;5025754;28;20092;-62
2023/01/26 02:46:47;;;;;;;41.00;23.20;;;-1.30;99.90;;;;;;5025835;28;20822;-62
2023/01/26 02:51:56;;;;;;;43.25;23.00;;;-1.30;99.90;;;;;;5027140;28;20045;-62
2023/01/26 02:57:06;;;;;;;43.67;22.80;;;-1.30;99.90;;;;;;5027540;28;20028;-62
2023/01/26 02:59:31;;;;;;;44.83;22.90;;;-1.30;99.90;;;;;;5028500;28;20116;-62
2023/01/26 03:01:57;;;;;;;43.40;24.20;;;-1.30;99.90;;;;;;5026844;28;20033;-62
2023/01/26 03:04:23;;;;;;;46.95;22.67;;;-1.30;99.90;;;;;;5025806;28;20041;-62
2023/01/26 03:06:49;;;;;;;41.17;22.02;;;-1.30;99.90;;;;;;5027131;28;20021;-63
2023/01/26 03:09:14;;;;;;;45.72;23.27;;;-1.30;99.90;;;;;;5026019;28;20044;-62
2023/01/26 03:11:43;;;;;;;48.42;23.02;;;-1.30;99.90;;;;;;5026050;28;20064;-62
2023/01/26 03:14:13;;;;;;;36.97;19.38;;;-1.30;99.90;;;;;;5027469;28;20369;-62
2023/01/26 03:16:39;;;;;;;39.90;21.05;;;-1.30;99.90;;;;;;5026678;28;20083;-62
2023/01/26 03:27:25;;;;;;;37.75;19.38;;;-1.30;99.90;;;;;;5027373;28;20040;-62
2023/01/26 03:29:50;;;;;;;44.05;22.05;;;-1.20;99.90;;;;;;5024329;28;20017;-62
2023/01/26 03:32:16;;;;;;;44.65;21.98;;;-1.30;99.90;;;;;;5027310;28;20448;-62
2023/01/26 03:34:42;;;;;;;44.92;21.90;;;-1.20;99.90;;;;;;5022437;28;20035;-62
2023/01/26 03:37:07;;;;;;;44.13;21.20;;;-1.20;99.90;;;;;;5025461;28;20075;-62
2023/01/26 03:56:21;;;;;;;39.90;21.25;;;-1.20;99.90;;;;;;5025609;28;20439;-62
2023/01/26 03:58:53;;;;;;;36.38;20.17;;;-1.20;99.90;;;;;;5025707;28;20033;-62
2023/01/26 04:01:24;;;;;;;38.83;19.00;;;-1.20;99.90;;;;;;5026759;28;20104;-62
2023/01/26 04:09:22;;;;;;;37.42;18.30;;;-1.20;99.90;;;;;;5025671;28;20049;-62
2023/01/26 04:11:47;;;;;;;36.58;19.38;;;-1.20;99.90;;;;;;5026306;28;20032;-62
2023/01/26 04:22:29;;;;;;;35.50;17.90;;;-1.20;99.90;;;;;;5024065;28;20482;-62
2023/01/26 04:24:56;;;;;;;30.65;16.75;;;-1.20;99.90;;;;;;5023433;28;20042;-62
2023/01/26 04:27:21;;;;;;;33.40;16.98;;;-1.10;99.90;;;;;;5025677;28;20460;-62
2023/01/26 04:29:47;;;;;;;32.20;16.75;;;-1.10;99.90;;;;;;5025384;28;20112;-62
2023/01/26 04:32:13;;;;;;;34.13;18.67;;;-1.20;99.90;;;;;;5043030;22;20341;-52
2023/01/26 04:34:38;;;;;;;31.42;16.95;;;-1.20;99.90;;;;;;4994228;28;20043;-50
2023/01/26 04:37:04;;;;;;;33.72;17.08;;;-1.10;99.90;;;;;;4995766;28;20022;-51
2023/01/26 04:39:29;;;;;;;30.48;17.15;;;-1.10;99.90;;;;;;4998079;28;20392;-49
2023/01/26 04:41:55;;;;;;;30.15;16.80;;;-1.10;99.90;;;;;;4997713;28;20018;-50
2023/01/26 04:44:20;;;;;;;34.63;18.38;;;-1.10;99.90;;;;;;4998608;28;20096;-52
2023/01/26 04:46:47;;;;;;;32.70;17.95;;;-1.10;99.90;;;;;;4997723;28;20036;-53
2023/01/26 04:49:13;;;;;;;28.48;15.23;;;-1.10;99.90;;;;;;4998194;28;20060;-52
2023/01/26 04:51:39;;;;;;;31.00;16.15;;;-1.10;99.90;;;;;;4997179;28;20061;-55
2023/01/26 04:54:05;;;;;;;32.42;16.35;;;-1.10;99.90;;;;;;4999857;28;20039;-55
2023/01/26 04:56:32;;;;;;;28.90;15.52;;;-1.00;99.90;;;;;;5001863;28;20022;-51
2023/01/26 04:59:01;;;;;;;27.45;15.10;;;-1.00;99.90;;;;;;5000645;28;20025;-51
2023/01/26 05:01:27;;;;;;;30.42;15.65;;;-1.00;99.90;;;;;;5000988;28;20027;-54
2023/01/26 05:03:52;;;;;;;28.13;15.10;;;-1.00;99.90;;;;;;5001192;28;20026;-55
2023/01/26 05:06:18;;;;;;;29.40;15.57;;;-1.00;99.90;;;;;;5001368;28;20243;-52
2023/01/26 05:08:44;;;;;;;30.73;16.48;;;-1.00;99.90;;;;;;4999677;28;20025;-54
2023/01/26 05:11:09;;;;;;;30.95;16.98;;;-1.00;99.90;;;;;;5001798;28;20105;-55
2023/01/26 05:13:36;;;;;;;30.00;15.77;;;-1.10;99.90;;;;;;5000532;28;20166;-51
2023/01/26 05:16:05;;;;;;;33.17;15.40;;;-1.00;99.90;;;;;;4999655;28;20481;-55
2023/01/26 05:18:31;;;;;;;27.83;16.05;;;-1.00;99.90;;;;;;5001100;28;20030;-53
2023/01/26 05:20:56;;;;;;;33.15;16.75;;;-1.00;99.90;;;;;;4998474;28;20559;-53
2023/01/26 05:23:22;;;;;;;30.90;17.00;;;-1.00;99.90;;;;;;5001117;28;20022;-51
2023/01/26 05:25:48;;;;;;;34.13;17.58;;;-1.00;99.90;;;;;;5000704;28;20123;-53
2023/01/26 05:28:13;;;;;;;29.70;15.57;;;-1.00;99.90;;;;;;5001133;28;20057;-51
2023/01/26 05:30:39;;;;;;;28.55;15.55;;;-1.00;99.90;;;;;;5000621;28;20034;-56
2023/01/26 05:33:06;;;;;;;30.17;18.02;;;-1.00;99.90;;;;;;4999204;28;20080;-54
2023/01/26 05:35:33;;;;;;;34.30;18.33;;;-1.00;99.90;;;;;;5000166;28;20022;-54
2023/01/26 05:37:58;;;;;;;32.58;17.92;;;-0.90;99.90;;;;;;5000354;28;20031;-52
2023/01/26 05:40:25;;;;;;;35.72;19.42;;;-0.90;99.90;;;;;;4983781;28;20033;-54
2023/01/26 05:42:51;;;;;;;27.80;16.88;;;-0.90;99.90;;;;;;4998590;28;20029;-54
2023/01/26 05:45:17;;;;;;;38.20;20.00;;;-1.00;99.90;;;;;;5000087;28;20100;-56
2023/01/26 05:47:44;;;;;;;32.28;19.92;;;-1.00;99.90;;;;;;4982877;28;20026;-54
2023/01/26 05:50:11;;;;;;;31.52;19.63;;;-0.90;99.90;;;;;;5001058;28;20515;-54
2023/01/26 05:52:36;;;;;;;32.63;18.98;;;-0.90;99.90;;;;;;4999309;28;20045;-56
2023/01/26 05:55:03;;;;;;;30.02;17.70;;;-0.90;99.90;;;;;;5000356;28;20489;-55
2023/01/26 05:57:29;;;;;;;30.23;15.48;;;-0.90;99.90;;;;;;4998930;28;20100;-54
2023/01/26 05:59:55;;;;;;;26.70;16.17;;;-0.90;99.90;;;;;;4998084;28;20030;-52
2023/01/26 06:02:20;;;;;;;28.38;16.65;;;-0.80;99.90;;;;;;4998955;28;20017;-55
2023/01/26 06:04:46;;;;;;;30.15;16.08;;;-0.80;99.90;;;;;;4998675;28;20628;-55
2023/01/26 06:07:14;;;;;;;28.13;15.05;;;-0.80;99.90;;;;;;4998404;28;20060;-53
2023/01/26 06:09:41;;;;;;;27.30;14.35;;;-0.80;99.90;;;;;;4999508;28;20125;-52
2023/01/26 06:12:18;;;;;;;29.17;15.30;;;-0.80;99.90;;;;;;5000419;28;20070;-53
2023/01/26 06:14:43;;;;;;;25.52;14.70;;;-0.80;99.90;;;;;;4998817;28;20477;-55
2023/01/26 06:17:10;;;;;;;26.65;15.27;;;-0.90;99.90;;;;;;4999248;28;20022;-55
2023/01/26 06:19:36;;;;;;;26.38;14.48;;;-0.80;99.90;;;;;;4999945;28;20476;-53
2023/01/26 06:22:02;;;;;;;27.13;12.90;;;-0.80;99.90;;;;;;4998319;28;20057;-55
2023/01/26 06:24:28;;;;;;;25.20;14.13;;;-0.80;99.90;;;;;;4999751;28;20496;-57
2023/01/26 06:26:54;;;;;;;28.48;14.38;;;-0.90;99.90;;;;;;4999796;28;20049;-55
2023/01/26 06:29:20;;;;;;;25.02;14.55;;;-0.90;99.90;;;;;;4999066;28;20029;-52
2023/01/26 06:31:45;;;;;;;31.40;15.30;;;-0.80;99.90;;;;;;4999124;28;20409;-55
2023/01/26 06:34:11;;;;;;;23.92;13.95;;;-0.80;99.90;;;;;;5000339;28;20036;-55
2023/01/26 06:36:36;;;;;;;24.35;13.48;;;-0.80;99.90;;;;;;4997618;28;20030;-53
2023/01/26 06:39:02;;;;;;;26.67;14.48;;;-0.80;99.90;;;;;;4998951;28;20026;-54
2023/01/26 06:41:28;;;;;;;24.70;13.82;;;-0.80;99.90;;;;;;4998072;28;20421;-54
2023/01/26 06:43:54;;;;;;;30.02;15.18;;;-0.80;99.90;;;;;;4998800;28;20034;-53
2023/01/26 06:46:20;;;;;;;27.13;14.90;;;-0.80;99.90;;;;;;4998800;28;20032;-55
2023/01/26 06:48:45;;;;;;;23.42;14.98;;;-0.80;99.90;;;;;;4999602;28;20113;-55
2023/01/26 06:51:18;;;;;;;22.90;13.48;;;-0.80;99.90;;;;;;4999655;28;20019;-56
2023/01/26 06:53:47;;;;;;;27.30;13.88;;;-0.80;99.90;;;;;;5000011;28;20022;-56
2023/01/26 06:56:13;;;;;;;27.85;14.38;;;-0.80;99.90;;;;;;4979113;28;20060;-54
2023/01/26 06:58:39;;;;;;;27.98;14.10;;;-0.80;99.90;;;;;;4998800;28;20061;-53
2023/01/26 07:01:05;;;;;;;29.50;14.45;;;-0.80;99.90;;;;;;4998564;28;20026;-55
2023/01/26 07:03:30;;;;;;;24.52;14.93;;;-0.80;99.90;;;;;;4999531;28;20122;-54
2023/01/26 07:05:56;;;;;;;28.75;17.25;;;-0.80;99.90;;;;;;4998791;28;20054;-56
2023/01/26 07:08:22;;;;;;;31.45;16.33;;;-0.80;99.90;;;;;;4999221;28;20038;-53
2023/01/26 07:10:48;;;;;;;25.60;13.68;;;-0.80;99.90;;;;;;4997892;28;20069;-52
2023/01/26 07:13:14;;;;;;;24.40;14.32;;;-0.80;99.90;;;;;;4999087;28;20037;-54
2023/01/26 07:15:40;;;;;;;26.48;15.18;;;-0.80;99.90;;;;;;4998125;28;20045;-53
2023/01/26 07:18:05;;;;;;;26.65;13.57;;;-0.80;99.90;;;;;;4997676;28;20041;-55
2023/01/26 07:20:31;;;;;;;25.60;14.52;;;-0.80;99.90;;;;;;4999847;28;20030;-52
2023/01/26 07:22:59;;;;;;;27.67;15.82;;;-0.80;99.90;;;;;;4998520;28;20022;-56
2023/01/26 07:25:25;;;;;;;39.30;21.95;;;-0.70;99.90;;;;;;4996706;28;20036;-55
2023/01/26 07:27:57;;;;;;;31.05;17.63;;;-0.70;99.90;;;;;;4998977;28;20030;-56
2023/01/26 07:30:23;;;;;;;25.45;14.57;;;-0.70;99.90;;;;;;4998762;28;20034;-54
2023/01/26 07:32:49;;;;;;;27.50;13.75;;;-0.70;99.90;;;;;;4997824;28;20046;-55
2023/01/26 07:35:15;;;;;;;30.63;15.25;;;-0.70;99.90;;;;;;4998621;28;20514;-52
2023/01/26 07:37:40;;;;;;;23.98;13.48;;;-0.70;99.90;;;;;;4996690;28;20053;-54
2023/01/26 07:40:07;;;;;;;25.95;14.02;;;-0.70;99.90;;;;;;4997945;28;20030;-56
2023/01/26 07:42:32;;;;;;;29.42;17.52;;;-0.70;99.90;;;;;;4998371;28;20026;-55
2023/01/26 07:44:58;;;;;;;29.25;15.60;;;-0.60;99.90;;;;;;4998397;28;20045;-53
2023/01/26 07:47:24;;;;;;;27.45;14.65;;;-0.60;99.90;;;;;;4997663;28;20026;-54
2023/01/26 07:49:50;;;;;;;25.77;14.60;;;-0.60;99.90;;;;;;4996384;28;20037;-56
2023/01/26 07:52:15;;;;;;;26.73;15.10;;;-0.60;99.90;;;;;;4998468;28;20040;-55
2023/01/26 07:54:41;;;;;;;24.05;13.38;;;-0.60;99.90;;;;;;4998683;28;20040;-55
2023/01/26 07:57:07;;;;;;;20.17;12.10;;;-0.60;99.90;;;;;;4996840;28;20031;-55
2023/01/26 07:59:32;;;;;;;24.92;13.10;;;-0.60;99.90;;;;;;4996798;28;20034;-53
2023/01/26 08:01:58;;;;;;;24.80;14.35;;;-0.60;99.90;;;;;;4999029;28;20033;-55
2023/01/26 08:04:24;;;;;;;23.55;13.65;;;-0.50;99.90;;;;;;4996913;28;20084;-56
2023/01/26 08:06:52;;;;;;;23.60;13.13;;;-0.50;99.90;;;;;;4998367;28;20591;-55
2023/01/26 08:09:18;;;;;;;21.92;13.50;;;-0.50;99.90;;;;;;4998134;28;20069;-55
2023/01/26 08:11:43;;;;;;;24.95;13.23;;;-0.40;99.90;;;;;;4996899;28;20072;-55
2023/01/26 08:14:09;;;;;;;22.33;12.98;;;-0.40;99.90;;;;;;4998244;28;20125;-56
2023/01/26 08:16:35;;;;;;;20.83;11.55;;;-0.40;99.90;;;;;;4996858;28;20096;-56
2023/01/26 08:19:01;;;;;;;30.75;14.98;;;-0.30;99.90;;;;;;4997229;28;20105;-56
2023/01/26 08:21:27;;;;;;;48.08;22.70;;;-0.30;99.90;;;;;;4997329;28;20036;-55
2023/01/26 08:23:53;;;;;;;26.98;15.27;;;-0.30;99.90;;;;;;4996771;28;20392;-55
2023/01/26 08:26:19;;;;;;;18.92;10.63;;;-0.30;99.90;;;;;;4996994;28;20063;-56
2023/01/26 08:28:45;;;;;;;21.75;11.07;;;-0.30;99.90;;;;;;4999285;28;20509;-57
2023/01/26 08:31:18;;;;;;;16.60;10.25;;;-0.30;99.90;;;;;;5002347;28;20442;-57
2023/01/26 08:33:45;;;;;;;15.73;9.00;;;-0.30;99.90;;;;;;5001242;28;20026;-56
2023/01/26 08:36:11;;;;;;;26.80;13.32;;;-0.30;99.90;;;;;;4999623;28;20611;-53
2023/01/26 08:38:37;;;;;;;19.73;10.88;;;-0.30;99.90;;;;;;4999760;28;20031;-56
2023/01/26 08:41:04;;;;;;;16.70;10.15;;;-0.20;99.90;;;;;;5001267;28;20451;-55
2023/01/26 08:43:29;;;;;;;17.38;9.75;;;-0.20;99.90;;;;;;4999631;28;20034;-55
2023/01/26 08:45:55;;;;;;;30.45;16.60;;;-0.20;99.90;;;;;;4999665;28;20401;-55
2023/01/26 08:48:21;;;;;;;20.50;12.00;;;-0.30;99.90;;;;;;5002324;28;20505;-55
2023/01/26 08:50:47;;;;;;;17.30;10.65;;;-0.20;99.90;;;;;;5000541;28;20034;-57
2023/01/26 08:53:13;;;;;;;18.13;9.95;;;-0.20;99.90;;;;;;5000582;28;20038;-56
2023/01/26 08:55:38;;;;;;;17.75;9.65;;;-0.20;99.90;;;;;;4999590;28;20047;-56
2023/01/26 08:58:04;;;;;;;17.45;10.05;;;-0.30;99.90;;;;;;5000442;28;20521;-57
2023/01/26 09:00:30;;;;;;;19.27;10.90;;;-0.20;99.90;;;;;;5000709;28;20034;-56
2023/01/26 09:03:03;;;;;;;26.20;13.80;;;-0.30;99.90;;;;;;5001890;28;20026;-57
2023/01/26 09:05:34;;;;;;;26.42;12.85;;;-0.20;99.90;;;;;;5001342;28;20058;-53
2023/01/26 09:08:01;;;;;;;20.33;12.55;;;-0.20;99.90;;;;;;5000698;28;20493;-56
2023/01/26 09:10:26;;;;;;;16.23;9.02;;;-0.20;99.90;;;;;;5001398;28;20057;-55
2023/01/26 09:12:52;;;;;;;15.75;9.90;;;-0.20;99.90;;;;;;5001881;28;20041;-56
2023/01/26 09:15:17;;;;;;;15.60;9.85;;;-0.20;99.90;;;;;;5001614;28;20026;-58
2023/01/26 09:17:43;;;;;;;17.23;10.60;;;-0.20;99.90;;;;;;4999669;28;20022;-54
2023/01/26 09:20:10;;;;;;;20.88;13.18;;;-0.20;99.90;;;;;;5001487;28;20213;-55
2023/01/26 09:22:36;;;;;;;21.55;12.75;;;-0.10;99.90;;;;;;5000857;28;20058;-55
2023/01/26 09:25:02;;;;;;;17.77;9.88;;;-0.10;99.90;;;;;;4999588;28;20073;-54
2023/01/26 09:27:28;;;;;;;18.08;10.48;;;-0.10;99.90;;;;;;5001063;28;20536;-57
2023/01/26 09:29:54;;;;;;;14.90;9.50;;;-0.10;99.90;;;;;;4999777;28;20104;-56
2023/01/26 09:32:20;;;;;;;16.23;9.70;;;-0.10;99.90;;;;;;5000334;28;20493;-56
2023/01/26 09:34:46;;;;;;;17.10;10.10;;;-0.10;99.90;;;;;;4997939;28;20030;-56
2023/01/26 09:37:12;;;;;;;16.85;10.85;;;-0.10;99.90;;;;;;5000926;28;20029;-56
2023/01/26 09:39:38;;;;;;;19.48;10.45;;;0.00;99.90;;;;;;5000566;28;20030;-55
2023/01/26 09:42:29;;;;;;;19.75;11.02;;;0.00;99.90;;;;;;4998791;28;20374;-56
2023/01/26 09:45:10;;;;;;;19.35;10.07;;;0.00;99.90;;;;;;5001572;28;20030;-58
2023/01/26 09:47:47;;;;;;;17.55;9.63;;;-0.10;99.90;;;;;;4999545;28;20225;-56
2023/01/26 09:50:20;;;;;;;20.33;10.15;;;0.00;99.90;;;;;;4999206;28;20060;-56
2023/01/26 09:53:01;;;;;;;17.77;10.68;;;0.00;99.90;;;;;;4998458;28;20535;-56
2023/01/26 09:55:29;;;;;;;19.27;11.35;;;0.10;99.90;;;;;;4999804;28;20085;-53
2023/01/26 09:58:06;;;;;;;23.15;10.70;;;0.10;99.90;;;;;;5000618;28;20092;-56
2023/01/26 10:00:50;;;;;;;19.48;11.52;;;0.10;99.90;;;;;;4999541;28;20065;-55
2023/01/26 10:03:24;;;;;;;24.45;12.05;;;0.10;99.90;;;;;;5000200;28;20026;-58
2023/01/26 10:05:57;;;;;;;20.40;12.02;;;0.10;99.90;;;;;;5000014;28;20026;-58
2023/01/26 10:08:23;;;;;;;20.02;11.20;;;0.20;99.90;;;;;;4998650;28;20038;-57
2023/01/26 10:10:59;;;;;;;22.52;11.70;;;0.20;99.90;;;;;;4999265;28;20487;-56
2023/01/26 10:13:25;;;;;;;18.65;10.85;;;0.20;99.90;;;;;;5000118;28;20400;-58
2023/01/26 10:16:00;;;;;;;22.95;13.15;;;0.20;99.90;;;;;;5000109;28;20488;-55
2023/01/26 10:18:33;;;;;;;23.55;12.75;;;0.30;99.90;;;;;;4999839;28;20033;-58
2023/01/26 10:21:02;;;;;;;23.92;12.25;;;0.30;99.90;;;;;;4998407;28;20528;-56
2023/01/26 10:23:30;;;;;;;21.98;13.07;;;0.30;99.90;;;;;;4999115;28;20144;-57
2023/01/26 10:26:15;;;;;;;24.77;12.10;;;0.30;99.90;;;;;;4999603;28;20022;-56
2023/01/26 10:28:43;;;;;;;21.80;11.27;;;0.40;99.90;;;;;;4999471;28;20032;-53
2023/01/26 10:31:31;;;;;;;22.85;11.70;;;0.40;99.90;;;;;;5000284;28;20447;-57
2023/01/26 10:34:16;;;;;;;25.80;12.98;;;0.40;99.90;;;;;;5292693;22;20050;-58
2023/01/26 10:36:46;;;;;;;30.23;12.88;;;0.40;99.90;;;;;;5017545;28;20116;-60
2023/01/26 10:39:14;;;;;;;25.05;12.43;;;0.50;99.90;;;;;;5016675;28;20055;-59
2023/01/26 10:41:47;;;;;;;23.00;11.25;;;0.40;99.90;;;;;;5019091;28;20018;-58
2023/01/26 10:44:32;;;;;;;27.33;12.35;;;0.50;99.90;;;;;;5008845;28;20125;-60
2023/01/26 10:47:16;;;;;;;21.60;11.30;;;0.50;99.90;;;;;;5008461;28;20072;-61
2023/01/26 10:49:42;;;;;;;27.80;11.98;;;0.50;99.90;;;;;;5007297;28;20045;-60
2023/01/26 10:52:16;;;;;;;23.92;12.25;;;0.40;99.90;;;;;;5008807;28;20495;-61
2023/01/26 10:54:45;;;;;;;20.35;12.35;;;0.40;99.90;;;;;;5006665;28;20397;-57
2023/01/26 10:57:15;;;;;;;24.63;12.60;;;0.50;99.90;;;;;;5005915;28;20026;-62
2023/01/26 10:59:59;;;;;;;25.65;12.38;;;0.50;99.90;;;;;;5007152;28;20030;-57
2023/01/26 11:02:29;;;;;;;27.48;13.18;;;0.50;99.90;;;;;;5006823;28;20030;-59
2023/01/26 11:05:17;;;;;;;22.27;11.90;;;0.60;99.90;;;;;;5007501;28;20415;-59
2023/01/26 11:07:45;;;;;;;25.05;12.82;;;0.60;99.90;;;;;;5006073;28;20033;-61
2023/01/26 11:10:20;;;;;;;23.60;12.23;;;0.60;99.90;;;;;;5007785;28;20025;-60
2023/01/26 11:12:45;;;;;;;22.90;11.82;;;0.60;99.90;;;;;;5006687;28;20530;-61
2023/01/26 11:15:21;;;;;;;21.42;12.10;;;0.70;99.90;;;;;;5006931;28;20022;-59
2023/01/26 11:17:51;;;;;;;32.65;13.85;;;0.70;99.90;;;;;;5007024;28;20022;-60
2023/01/26 11:20:32;;;;;;;34.95;12.98;;;0.70;99.90;;;;;;5006672;28;20108;-57
2023/01/26 11:23:07;;;;;;;34.67;14.38;;;0.70;99.90;;;;;;5006962;28;20021;-59
2023/01/26 11:26:08;;;;;;;21.23;11.60;;;0.70;99.90;;;;;;5006816;28;20507;-60
2023/01/26 11:28:42;;;;;;;25.88;12.25;;;0.70;99.90;;;;;;5005635;28;20105;-59
2023/01/26 11:31:19;;;;;;;22.83;11.70;;;0.80;99.90;;;;;;5007644;28;20030;-60
2023/01/26 11:33:54;;;;;;;25.83;12.18;;;0.80;99.90;;;;;;5006698;28;20037;-61
2023/01/26 11:36:53;;;;;;;27.70;14.00;;;0.80;99.90;;;;;;5006744;28;20033;-61
2023/01/26 11:39:45;;;;;;;28.83;16.92;;;0.80;99.90;;;;;;4988746;28;20057;-61
2023/01/26 11:42:16;;;;;;;28.58;14.88;;;0.90;99.90;;;;;;5007695;28;20026;-60
2023/01/26 11:45:06;;;;;;;28.02;17.15;;;0.90;99.90;;;;;;5006625;28;20561;-60
2023/01/26 11:48:00;;;;;;;23.17;13.00;;;0.90;99.90;;;;;;5007864;28;20022;-57
2023/01/26 11:50:39;;;;;;;25.85;13.82;;;0.90;99.90;;;;;;5007159;28;20060;-57
2023/01/26 11:53:47;;;;;;;33.83;20.08;;;1.00;99.90;;;;;;5008202;28;20033;-59
2023/01/26 11:56:26;;;;;;;26.15;14.85;;;1.00;99.90;;;;;;4985187;28;20025;-58
2023/01/26 11:59:31;;;;;;;26.80;15.02;;;1.00;99.90;;;;;;5005455;28;20026;-60
2023/01/26 12:02:23;;;;;;;33.60;14.23;;;1.10;99.90;;;;;;5005676;28;20029;-58
2023/01/26 12:04:51;;;;;;;21.35;13.20;;;1.10;99.90;;;;;;5006874;28;20022;-59
2023/01/26 12:07:58;;;;;;;30.63;17.05;;;1.10;99.90;;;;;;5006296;28;20531;-56
2023/01/26 12:10:35;;;;;;;33.33;16.73;;;1.10;99.90;;;;;;4973117;28;20034;-60
2023/01/26 12:13:19;;;;;;;27.45;12.30;;;1.10;99.90;;;;;;5007183;28;20065;-59
2023/01/26 12:15:55;;;;;;;23.17;12.68;;;1.10;99.90;;;;;;5005328;28;20030;-59
2023/01/26 12:18:30;;;;;;;23.50;12.82;;;1.10;99.90;;;;;;5006731;28;20052;-59
2023/01/26 12:21:09;;;;;;;31.27;12.43;;;1.10;99.90;;;;;;5006374;28;20022;-60
2023/01/26 12:23:50;;;;;;;31.40;12.98;;;1.10;99.90;;;;;;5004676;28;20288;-59
2023/01/26 12:26:19;;;;;;;30.58;12.15;;;1.10;99.90;;;;;;5004487;28;20559;-59
2023/01/26 12:28:59;;;;;;;23.58;12.38;;;1.10;99.90;;;;;;5004780;28;20038;-60
2023/01/26 12:31:44;;;;;;;21.60;12.15;;;1.10;99.90;;;;;;5003851;28;20561;-60
2023/01/26 12:34:12;;;;;;;32.00;12.73;;;1.10;99.90;;;;;;5004627;28;20022;-58
2023/01/26 12:37:09;;;;;;;26.27;13.95;;;1.10;99.90;;;;;;5003321;28;20022;-59
2023/01/26 12:39:47;;;;;;;46.38;13.57;;;1.20;99.90;;;;;;5005719;28;20032;-60
2023/01/26 12:42:40;;;;;;;22.15;12.75;;;1.20;99.90;;;;;;5007383;28;20053;-60
2023/01/26 12:45:28;;;;;;;26.55;12.93;;;1.20;99.90;;;;;;5001600;28;20404;-59
2023/01/26 12:48:04;;;;;;;25.50;12.80;;;1.20;99.90;;;;;;5004512;28;20547;-58
2023/01/26 12:50:34;;;;;;;27.58;14.25;;;1.20;99.90;;;;;;5006455;28;20034;-60
2023/01/26 12:53:30;;;;;;;24.95;12.80;;;1.30;99.90;;;;;;5005531;28;20436;-60
2023/01/26 12:56:18;;;;;;;26.23;13.95;;;1.30;99.90;;;;;;5005754;28;20057;-59
2023/01/26 12:58:47;;;;;;;29.95;12.27;;;1.30;99.90;;;;;;5006873;28;20481;-61
2023/01/26 13:01:19;;;;;;;28.42;12.60;;;1.30;99.90;;;;;;5006030;28;20100;-60
2023/01/26 13:03:55;;;;;;;21.20;10.65;;;1.30;99.90;;;;;;5006205;28;20085;-56
2023/01/26 13:06:24;;;;;;;22.23;9.90;;;1.40;99.90;;;;;;5006093;28;20481;-59
2023/01/26 13:08:59;;;;;;;19.38;9.50;;;1.40;99.90;;;;;;5004880;28;20057;-61
2023/01/26 13:11:41;;;;;;;19.70;9.70;;;1.40;99.90;;;;;;5004359;28;20115;-59
2023/01/26 13:14:25;;;;;;;17.70;8.73;;;1.40;99.90;;;;;;5006526;28;20030;-60
2023/01/26 13:16:51;;;;;;;18.05;9.65;;;1.50;99.90;;;;;;5010797;28;20057;-60
2023/01/26 13:19:36;;;;;;;12.80;8.50;;;1.40;99.90;;;;;;5010119;28;20022;-59
2023/01/26 13:22:02;;;;;;;15.68;7.18;;;1.50;99.90;;;;;;5008449;28;20114;-58
2023/01/26 13:24:27;;;;;;;17.13;7.50;;;1.50;99.90;;;;;;5008376;28;20120;-59
2023/01/26 13:26:56;;;;;;;19.52;6.65;;;1.40;99.90;;;;;;5009444;28;20029;-58
2023/01/26 13:29:24;;;;;;;13.88;6.55;;;1.40;99.90;;;;;;5010212;28;20117;-58
2023/01/26 13:32:19;;;;;;;10.65;6.38;;;1.40;99.90;;;;;;5010553;28;20029;-60
2023/01/26 13:34:57;;;;;;;11.95;6.57;;;1.40;99.90;;;;;;4995176;28;20116;-60